• Join FlightAware (Why Join?)
  • Login
  • US Flag 
11:22AM EST


 

Airport Tracker/Info


-or-


 

Live Flight TrackerFlight Track Log ✈ FDX1407 ✈ 24-Aug-2013 ✈ KMEM - KMSP

Flight Track Log - Related Links

Times and Time Zones

All times are in EDT time to prevent confusion due to time zone crossing. See the FDX1407 flight status page for this flight to view local times or setup timezone preferences in your user account.

Time Position Orientation Groundspeed Altitude Reporting Facility
EDT Latitude Longitude Course Direction KTS MPH feet Rate Location/Type
05:00AM 35.0667 -90.0000 270° West 216 249 1,100  Level KMEM
05:01AM 35.0667 -90.0333 270° West 219 252 2,300 3,240 Climbing KMEM
05:02AM 35.1000 -90.1000 301° West 285 328 6,000 3,780 Climbing KMEM
05:03AM 35.1667 -90.1000 360° North 290 334 9,500 2,760 Climbing KMEM
05:05AM 35.3572 -90.1081 358° North 387 445 13,700 2,400 Climbing Kansas City Center
05:06AM 35.4694 -90.1461 345° North 408 470 16,500 2,640 Climbing Kansas City Center
05:07AM 35.5906 -90.1778 348° North 429 494 19,100 2,640 Climbing Kansas City Center
05:08AM 35.7147 -90.2156 346° North 447 514 21,700 2,640 Climbing Kansas City Center
05:09AM 35.8644 -90.2597 347° North 450 518 25,000 2,340 Climbing Memphis Center
05:10AM 35.9939 -90.2956 347° North 458 527 26,900 1,980 Climbing Memphis Center
05:11AM 36.0961 -90.3286 345° North 470 541 29,000 2,520 Climbing Memphis Center
05:12AM 36.2336 -90.3697 346° North 470 541 32,000 2,520 Climbing Memphis Center
05:13AM 36.3586 -90.4058 347° North 465 535 34,100 1,920 Climbing Memphis Center
05:14AM 36.4775 -90.4422 346° North 452 520 35,900 1,740 Climbing Memphis Center
05:15AM 36.5964 -90.4783 346° North 439 505 37,600 1,020 Climbing Memphis Center
05:16AM 36.7108 -90.5122 347° North 428 493 38,000 120 Climbing Memphis Center
05:18AM 36.9394 -90.5750 348° North 427 491 38,000  Level Kansas City Center
05:19AM 37.0558 -90.6092 347° North 427 491 38,000  Level Kansas City Center
05:20AM 37.1731 -90.6436 347° North 429 494 38,000  Level Kansas City Center
05:21AM 37.2886 -90.6781 347° North 427 491 38,000  Level Kansas City Center
05:22AM 37.3889 -90.7078 347° North 424 488 38,000  Level Kansas City Center
05:23AM 37.5206 -90.7483 346° North 424 488 38,000  Level Kansas City Center
05:24AM 37.6181 -90.7775 347° North 423 487 38,000  Level Kansas City Center
05:25AM 37.7331 -90.8128 346° North 424 488 38,000  Level Kansas City Center
05:26AM 37.8475 -90.8475 347° North 423 487 38,000  Level Kansas City Center
05:27AM 37.9619 -90.8833 346° North 423 487 38,000  Level Kansas City Center
05:28AM 38.0772 -90.9194 346° North 423 487 38,000  Level Kansas City Center
05:29AM 38.1917 -90.9553 346° North 424 488 38,000  Level Kansas City Center
05:30AM 38.3061 -90.9903 347° North 422 486 38,000  Level Kansas City Center
05:31AM 38.4219 -91.0267 346° North 425 489 38,000  Level Kansas City Center
05:32AM 38.5367 -91.0631 346° North 424 488 38,000  Level Kansas City Center
05:33AM 38.6517 -91.0989 346° North 423 487 38,000  Level Kansas City Center
05:34AM 38.7656 -91.1353 346° North 421 484 38,000  Level Kansas City Center
05:35AM 38.8803 -91.1717 346° North 421 484 38,000  Level Kansas City Center
05:36AM 38.9936 -91.2078 346° North 420 483 38,000  Level Kansas City Center
05:37AM 39.1075 -91.2436 346° North 420 483 38,000  Level Kansas City Center
05:38AM 39.2219 -91.2808 346° North 421 484 38,000  Level Kansas City Center
05:39AM 39.3364 -91.3156 347° North 422 486 38,000  Level Kansas City Center
05:40AM 39.4503 -91.3522 346° North 422 486 38,000  Level Kansas City Center
05:41AM 39.5817 -91.3950 346° North 419 482 38,000  Level Kansas City Center
05:42AM 39.6933 -91.4314 346° North 417 480 38,000  Level Kansas City Center
05:43AM 39.8069 -91.4658 347° North 420 483 38,000  Level Kansas City Center
05:44AM 39.9192 -91.5031 346° North 421 484 38,000  Level Kansas City Center
05:45AM 40.0311 -91.5411 345° North 421 484 38,000  Level Kansas City Center
05:46AM 40.1422 -91.5775 346° North 417 480 38,000  Level Kansas City Center
05:47AM 40.2542 -91.6139 346° North 418 481 38,000  Level Kansas City Center
05:48AM 40.3650 -91.6503 346° North 418 481 38,000  Level Kansas City Center
05:49AM 40.4761 -91.6869 346° North 416 479 38,000  Level Kansas City Center
05:50AM 40.5886 -91.7242 346° North 420 483 38,000  Level Kansas City Center
05:51AM 40.7000 -91.7614 346° North 420 483 38,000  Level Kansas City Center
05:52AM 40.8117 -91.7986 346° North 419 482 38,000  Level Kansas City Center
05:53AM 40.9442 -91.8436 346° North 416 479 38,000  Level Kansas City Center
05:54AM 41.0553 -91.8808 346° North 416 479 38,000  Level Kansas City Center
05:55AM 41.1433 -91.9097 346° North 415 478 38,000  Level Minneapolis Center
05:56AM 41.2544 -91.9478 346° North 415 478 38,000  Level Minneapolis Center
05:57AM 41.3650 -91.9847 346° North 416 479 38,000  Level Minneapolis Center
05:58AM 41.4764 -92.0228 346° North 416 479 38,000  Level Minneapolis Center
05:59AM 41.5883 -92.0628 345° North 418 481 38,000  Level Minneapolis Center
06:00AM 41.7175 -92.1081 345° North 420 483 38,000  Level Minneapolis Center
06:01AM 41.8297 -92.1469 346° North 420 483 38,000  Level Minneapolis Center
06:02AM 41.9433 -92.1864 346° North 422 486 38,000  Level Minneapolis Center
06:03AM 42.0572 -92.2247 346° North 424 488 38,000  Level Minneapolis Center
06:04AM 42.1706 -92.2642 346° North 423 487 38,000  Level Minneapolis Center
06:05AM 42.2850 -92.3036 346° North 424 488 38,000  Level Minneapolis Center
06:06AM 42.3983 -92.3439 345° North 423 487 38,000 -60 Level Minneapolis Center
06:07AM 42.5314 -92.4008 342° North 419 482 37,900  Descending Chicago Center
06:08AM 42.6406 -92.4508 341° North 416 479 38,000  Climbing Chicago Center
06:09AM 42.7511 -92.5036 341° North 419 482 38,000  Level Chicago Center
06:10AM 42.8619 -92.5553 341° North 420 483 38,000 -1,020 Level Chicago Center
06:11AM 42.9700 -92.6086 340° North 416 479 36,000 -2,880 Descending Chicago Center
06:12AM 43.0581 -92.6533 340° North 420 483 33,000 -3,300 Descending Minneapolis Center
06:13AM 43.1744 -92.7086 341° North 436 502 30,200 -2,580 Descending Minneapolis Center
06:14AM 43.2933 -92.7644 341° North 449 517 27,900 -2,280 Descending Minneapolis Center
06:15AM 43.4064 -92.8197 340° North 441 507 25,700 -2,220 Descending Minneapolis Center
06:16AM 43.5161 -92.8736 340° North 429 494 23,500 -2,040 Descending Minneapolis Center
06:17AM 43.6256 -92.9264 341° North 422 486 21,200 -2,460 Descending Minneapolis Center
06:18AM 43.7731 -92.9986 341° North 410 472 18,100 -2,520 Descending Minneapolis Center
06:19AM 43.8608 -93.0428 340° North 396 456 16,200 -2,100 Descending Minneapolis Center
06:20AM 43.9547 -93.1067 334° Northwest 378 435 14,000 -2,160 Descending Minneapolis Center
06:21AM 44.0531 -93.1481 343° North 373 429 11,900 -1,560 Descending Minneapolis Center
06:22AM 44.1453 -93.1853 344° North 346 398 10,900 -960 Descending Minneapolis Center
06:23AM 44.2278 -93.2183 344° North 310 357 10,000 -480 Descending Minneapolis Center
06:24AM 44.3119 -93.2131 North 305 351 10,000  Level Minneapolis Center
06:25AM 44.3961 -93.2058 North 305 351 10,000  Level Minneapolis Center
06:26AM 44.4972 -93.1958 North 303 349 10,000  Level Minneapolis Center
06:27AM 44.5814 -93.1867 North 304 350 10,000 -660 Level Minneapolis Center
06:28AM 44.6631 -93.2025 352° North 302 348 8,700 -1,260 Descending Minneapolis Center
06:29AM 44.7244 -93.2411 336° Northwest 296 341 7,500 -1,500 Descending Minneapolis Center
06:30AM 44.8053 -93.2900 337° Northwest 296 341 5,700 -1,620 Descending Minneapolis Center
06:31AM 44.8556 -93.3675 312° West 274 315 4,300 -960 Descending Minneapolis Center
06:32AM 44.9150 -93.4017 338° Northwest 257 296 3,800 -780 Descending Minneapolis Center
06:33AM 44.9361 -93.3375 65° Northeast 195 224 2,800 -1,080 Descending Minneapolis Center
06:34AM 44.9108 -93.2875 126° Southeast 156 180 1,700 -1,140 Descending Minneapolis Center
06:36AM 44.8820 -93.2218 104° East  Level Estimated
06:43AM 44.8820 -93.2218 104° East  Level Estimated